createdAt,value
2023-05-09T00:00:09.957Z,20.0315
2023-05-09T00:01:11.816Z,20.0393
2023-05-09T00:02:14.529Z,20.0941
2023-05-09T00:03:16.793Z,20.2392
2023-05-09T00:04:19.277Z,20.3465
2023-05-09T00:05:21.245Z,20.3685
2023-05-09T00:06:23.892Z,20.3351
2023-05-09T00:07:25.814Z,20.3139
2023-05-09T00:08:28.144Z,20.2923
2023-05-09T00:09:30.539Z,20.2877
2023-05-09T00:10:32.847Z,20.2929
2023-05-09T00:11:35.199Z,20.3686
2023-05-09T00:12:37.503Z,20.4199
2023-05-09T00:13:39.870Z,20.4093
2023-05-09T00:14:42.179Z,20.4354
2023-05-09T00:15:44.619Z,20.4248
2023-05-09T00:16:46.901Z,20.4109
2023-05-09T00:17:49.225Z,20.4197
2023-05-09T00:18:51.500Z,20.4603
2023-05-09T00:19:53.983Z,20.5068
2023-05-09T00:20:56.271Z,20.4884
2023-05-09T00:21:58.606Z,20.4406
2023-05-09T00:23:00.919Z,20.4225
2023-05-09T00:24:03.184Z,20.4532
2023-05-09T00:25:05.627Z,20.5166
2023-05-09T00:26:07.878Z,20.5158
2023-05-09T00:27:10.241Z,20.5563
2023-05-09T00:28:12.533Z,20.5683
2023-05-09T00:29:14.949Z,20.6052
2023-05-09T00:30:17.596Z,20.6070
2023-05-09T00:31:19.533Z,20.5205
2023-05-09T00:32:21.896Z,20.4655
2023-05-09T00:33:24.355Z,20.5187
2023-05-09T00:34:26.752Z,20.5521
2023-05-09T00:35:28.889Z,20.5076
2023-05-09T00:36:31.566Z,20.4667
2023-05-09T00:37:33.583Z,20.4555
2023-05-09T00:38:36.000Z,20.4072
2023-05-09T00:39:38.472Z,20.4020
2023-05-09T00:40:41.639Z,20.3695
2023-05-09T00:41:42.910Z,20.4318
2023-05-09T00:42:45.264Z,20.4692
2023-05-09T00:43:47.849Z,20.5068
2023-05-09T00:44:50.260Z,20.5146
2023-05-09T00:45:52.567Z,20.5449
2023-05-09T00:46:54.735Z,20.5763
2023-05-09T00:47:57.128Z,20.5819
2023-05-09T00:48:59.272Z,20.5425
2023-05-09T00:50:02.089Z,20.5319
2023-05-09T00:51:03.950Z,20.4679
2023-05-09T00:52:06.337Z,20.4087
2023-05-09T00:53:08.887Z,20.3552
2023-05-09T00:54:10.968Z,20.2853
2023-05-09T00:55:13.756Z,20.2269
2023-05-09T00:56:15.919Z,20.2054
2023-05-09T00:57:17.948Z,20.2381
2023-05-09T00:58:20.713Z,20.2391
2023-05-09T00:59:23.285Z,20.2645
2023-05-09T01:00:25.024Z,20.3418
2023-05-09T01:01:27.345Z,20.3681
2023-05-09T01:02:29.857Z,20.4069
2023-05-09T01:03:32.116Z,20.3814
2023-05-09T01:04:34.290Z,20.3585
2023-05-09T01:05:36.672Z,20.4373
2023-05-09T01:06:39.251Z,20.4928
2023-05-09T01:07:41.415Z,20.5540
2023-05-09T01:08:43.726Z,20.5343
2023-05-09T01:09:45.977Z,20.5494
2023-05-09T01:10:48.447Z,20.5497
2023-05-09T01:11:50.712Z,20.5525
2023-05-09T01:12:53.048Z,20.5610
2023-05-09T01:13:55.603Z,20.5726
2023-05-09T01:14:57.691Z,20.5824
2023-05-09T01:16:00.411Z,20.5502
2023-05-09T01:17:02.574Z,20.5130
2023-05-09T01:18:05.257Z,20.5316
2023-05-09T01:19:07.680Z,20.5408
2023-05-09T01:20:09.373Z,20.5146
2023-05-09T01:21:11.778Z,20.5171
2023-05-09T01:22:14.231Z,20.5028
2023-05-09T01:23:17.273Z,20.4866
2023-05-09T01:24:19.839Z,20.4741
2023-05-09T01:25:21.334Z,20.4277
2023-05-09T01:26:23.686Z,20.3948
2023-05-09T01:27:26.430Z,20.3236
2023-05-09T01:28:28.096Z,20.2456
2023-05-09T01:29:30.395Z,20.2259
2023-05-09T01:30:33.527Z,20.2086
2023-05-09T01:31:36.737Z,20.1962
2023-05-09T01:32:37.866Z,20.2702
2023-05-09T01:33:39.795Z,20.3209
2023-05-09T01:34:42.086Z,20.2831
2023-05-09T01:35:44.410Z,20.2463
2023-05-09T01:36:46.746Z,20.1881
2023-05-09T01:37:49.249Z,20.1471
2023-05-09T01:38:51.553Z,20.1682
2023-05-09T01:39:54.128Z,20.2035
2023-05-09T01:40:56.220Z,20.1675
2023-05-09T01:41:58.423Z,20.1082
2023-05-09T01:43:00.819Z,20.1157
2023-05-09T01:44:03.328Z,20.1439
2023-05-09T01:45:05.440Z,20.1108
2023-05-09T01:46:07.877Z,20.0556
2023-05-09T01:47:10.138Z,20.0038
2023-05-09T01:48:12.462Z,20.0116
2023-05-09T01:49:14.802Z,20.0457
2023-05-09T01:50:17.379Z,20.0254
2023-05-09T01:51:19.622Z,20.0458
2023-05-09T01:52:21.784Z,20.0926
2023-05-09T01:53:24.216Z,20.0867
2023-05-09T01:54:26.935Z,20.0112
2023-05-09T01:55:28.804Z,19.9414
2023-05-09T01:56:31.210Z,19.9281
2023-05-09T01:57:33.508Z,19.9026
2023-05-09T01:58:36.312Z,19.8521
2023-05-09T01:59:38.233Z,19.8357
2023-05-09T02:00:40.570Z,19.7834
2023-05-09T02:01:42.886Z,19.7626
2023-05-09T02:02:45.390Z,19.8087
2023-05-09T02:03:47.573Z,19.8134
2023-05-09T02:04:49.873Z,19.7755
2023-05-09T02:05:52.250Z,19.7090
2023-05-09T02:06:54.578Z,19.7035
2023-05-09T02:07:56.962Z,19.6116
2023-05-09T02:08:59.200Z,19.5674
2023-05-09T02:10:01.653Z,19.6058
2023-05-09T02:11:03.893Z,19.6030
2023-05-09T02:12:06.234Z,19.6686
2023-05-09T02:13:08.577Z,19.7136
2023-05-09T02:14:11.045Z,19.7512
2023-05-09T02:15:13.390Z,19.8138
2023-05-09T02:16:15.932Z,19.8328
2023-05-09T02:17:18.222Z,19.7666
2023-05-09T02:18:20.292Z,19.7606
2023-05-09T02:19:22.612Z,19.7865
2023-05-09T02:20:24.910Z,19.7719
2023-05-09T02:21:29.120Z,19.7226
2023-05-09T02:22:29.696Z,19.6802
2023-05-09T02:23:31.951Z,19.6731
2023-05-09T02:24:34.350Z,19.7155
2023-05-09T02:25:36.655Z,19.6674
2023-05-09T02:26:39.543Z,19.6063
2023-05-09T02:27:41.317Z,19.5370
2023-05-09T02:28:43.657Z,19.5005
2023-05-09T02:29:45.963Z,19.4920
2023-05-09T02:30:48.397Z,19.4594
2023-05-09T02:31:50.758Z,19.3562
2023-05-09T02:32:53.081Z,19.2651
2023-05-09T02:33:55.515Z,19.2715
2023-05-09T02:34:57.620Z,19.3472
2023-05-09T02:36:00.206Z,19.3712
2023-05-09T02:37:02.451Z,19.4489
2023-05-09T02:38:04.631Z,19.4463
2023-05-09T02:39:07.321Z,19.3745
2023-05-09T02:40:09.885Z,19.3813
2023-05-09T02:41:11.705Z,19.4192
2023-05-09T02:42:14.026Z,19.3762
2023-05-09T02:43:16.746Z,19.4197
2023-05-09T02:44:18.673Z,19.5121
2023-05-09T02:45:21.027Z,19.5564
2023-05-09T02:46:23.750Z,19.5895
2023-05-09T02:47:25.694Z,19.5373
2023-05-09T02:48:28.036Z,19.4947
2023-05-09T02:49:32.426Z,19.4652
2023-05-09T02:50:32.751Z,19.4320
2023-05-09T02:51:35.219Z,19.4176
2023-05-09T02:52:37.437Z,19.3980
2023-05-09T02:53:39.794Z,19.3563
2023-05-09T02:54:42.098Z,19.3707
2023-05-09T02:55:44.408Z,19.3982
2023-05-09T02:56:46.830Z,19.3686
2023-05-09T02:57:51.994Z,19.3432
2023-05-09T02:58:51.567Z,19.2613
2023-05-09T02:59:53.854Z,19.2406
2023-05-09T03:00:56.114Z,19.2718
2023-05-09T03:01:58.434Z,19.3249
2023-05-09T03:03:00.859Z,19.3085
2023-05-09T03:04:03.079Z,19.3024
2023-05-09T03:05:05.410Z,19.3029
2023-05-09T03:06:07.771Z,19.2839
2023-05-09T03:07:10.088Z,19.2458
2023-05-09T03:08:12.412Z,19.2146
2023-05-09T03:09:14.809Z,19.1972
2023-05-09T03:10:17.301Z,19.1925
2023-05-09T03:11:19.564Z,19.1785
2023-05-09T03:12:21.852Z,19.1941
2023-05-09T03:13:24.202Z,19.1955
2023-05-09T03:14:26.539Z,19.1972
2023-05-09T03:15:28.775Z,19.1698
2023-05-09T03:16:31.187Z,19.1841
2023-05-09T03:17:33.476Z,19.1716
2023-05-09T03:18:35.759Z,19.1465
2023-05-09T03:19:38.121Z,19.1320
2023-05-09T03:20:40.464Z,19.1208
2023-05-09T03:21:42.881Z,19.1129
2023-05-09T03:22:45.125Z,19.0887
2023-05-09T03:23:47.501Z,19.1145
2023-05-09T03:24:49.801Z,19.1661
2023-05-09T03:25:52.112Z,19.1598
2023-05-09T03:26:54.461Z,19.1162
2023-05-09T03:27:56.880Z,19.0814
2023-05-09T03:28:59.135Z,19.0897
2023-05-09T03:30:01.454Z,19.1430
2023-05-09T03:31:03.949Z,19.1633
2023-05-09T03:32:06.236Z,19.1694
2023-05-09T03:33:08.526Z,19.1676
2023-05-09T03:34:10.794Z,19.1318
2023-05-09T03:35:13.476Z,19.1036
2023-05-09T03:36:15.484Z,19.0946
2023-05-09T03:37:17.817Z,19.0980
2023-05-09T03:38:20.132Z,19.1062
2023-05-09T03:39:22.471Z,19.1074
2023-05-09T03:40:24.971Z,19.1310
2023-05-09T03:41:27.145Z,19.1567
2023-05-09T03:42:29.509Z,19.1589
2023-05-09T03:43:31.919Z,19.1458
2023-05-09T03:44:34.151Z,19.1421
2023-05-09T03:45:36.609Z,19.1564
2023-05-09T03:46:38.896Z,19.1507
2023-05-09T03:47:41.217Z,19.1429
2023-05-09T03:48:43.511Z,19.1430
2023-05-09T03:49:45.847Z,19.1403
2023-05-09T03:50:48.203Z,19.1559
2023-05-09T03:51:50.548Z,19.2199
2023-05-09T03:52:52.843Z,19.2556
2023-05-09T03:53:55.434Z,19.3133
2023-05-09T03:54:57.752Z,19.3561
2023-05-09T03:55:59.871Z,19.3903
2023-05-09T03:57:02.249Z,19.4355
2023-05-09T03:58:04.597Z,19.4599
2023-05-09T03:59:06.950Z,19.4497
2023-05-09T04:00:09.426Z,19.4250
2023-05-09T04:01:11.681Z,19.3947
2023-05-09T04:02:14.840Z,19.3596
2023-05-09T04:03:16.252Z,19.3855
2023-05-09T04:04:19.587Z,19.4209
2023-05-09T04:05:20.879Z,19.4217
2023-05-09T04:06:23.200Z,19.4128
2023-05-09T04:07:25.555Z,19.3490
2023-05-09T04:08:27.881Z,19.3286
2023-05-09T04:09:30.338Z,19.3453
2023-05-09T04:10:32.536Z,19.3537
2023-05-09T04:11:35.250Z,19.3427
2023-05-09T04:12:37.227Z,19.3648
2023-05-09T04:13:39.728Z,19.4414
2023-05-09T04:14:41.980Z,19.4961
2023-05-09T04:15:44.229Z,19.5127
2023-05-09T04:16:46.584Z,19.5303
2023-05-09T04:17:51.305Z,19.5661
2023-05-09T04:18:51.226Z,19.5802
2023-05-09T04:19:53.570Z,19.5823
2023-05-09T04:20:55.894Z,19.5340
2023-05-09T04:21:58.230Z,19.5181
2023-05-09T04:23:00.628Z,19.5433
2023-05-09T04:24:02.908Z,19.6041
2023-05-09T04:25:05.299Z,19.6509
2023-05-09T04:26:07.617Z,19.6811
2023-05-09T04:27:09.947Z,19.7345
2023-05-09T04:28:12.259Z,19.8038
2023-05-09T04:29:14.643Z,19.8023
2023-05-09T04:30:17.046Z,19.8537
2023-05-09T04:31:19.402Z,19.8664
2023-05-09T04:32:21.603Z,19.8317
2023-05-09T04:33:23.960Z,19.7982
2023-05-09T04:34:26.292Z,19.7849
2023-05-09T04:35:28.660Z,19.7837
2023-05-09T04:36:30.966Z,19.7626
2023-05-09T04:37:33.306Z,19.7656
2023-05-09T04:38:35.657Z,19.8035
2023-05-09T04:39:37.973Z,19.8168
2023-05-09T04:40:40.324Z,19.8579
2023-05-09T04:41:42.649Z,19.8960
2023-05-09T04:42:45.024Z,19.9041
2023-05-09T04:43:47.297Z,19.9225
2023-05-09T04:44:49.658Z,19.9625
2023-05-09T04:45:52.066Z,20.0117
2023-05-09T04:46:54.280Z,20.0237
2023-05-09T04:47:56.691Z,20.0450
2023-05-09T04:48:59.682Z,20.0315
2023-05-09T04:50:01.314Z,20.0302
2023-05-09T04:51:03.641Z,20.0220
2023-05-09T04:52:06.003Z,20.0241
2023-05-09T04:53:08.316Z,20.0725
2023-05-09T04:54:10.651Z,20.1466
2023-05-09T04:55:13.260Z,20.2189
2023-05-09T04:56:15.329Z,20.2320
2023-05-09T04:57:18.844Z,20.2193
2023-05-09T04:58:19.999Z,20.2292
2023-05-09T04:59:22.327Z,20.2541
2023-05-09T05:00:24.712Z,20.2745
2023-05-09T05:01:27.120Z,20.2833
2023-05-09T05:02:29.358Z,20.3053
2023-05-09T05:03:31.671Z,20.3375
2023-05-09T05:04:34.061Z,20.3585
2023-05-09T05:05:37.412Z,20.3619
2023-05-09T05:06:38.685Z,20.3741
2023-05-09T05:07:41.033Z,20.3876
2023-05-09T05:08:43.359Z,20.3671
2023-05-09T05:09:45.779Z,20.3285
2023-05-09T05:10:48.246Z,20.3407
2023-05-09T05:11:59.448Z,20.3807
2023-05-09T05:12:52.740Z,20.3618
2023-05-09T05:13:55.043Z,20.3014
2023-05-09T05:14:57.388Z,20.2736
2023-05-09T05:15:59.783Z,20.2844
2023-05-09T05:17:02.136Z,20.3177
2023-05-09T05:18:04.410Z,20.3491
2023-05-09T05:19:06.733Z,20.3798
2023-05-09T05:20:09.065Z,20.3880
2023-05-09T05:21:11.413Z,20.3708
2023-05-09T05:22:13.732Z,20.3791
2023-05-09T05:23:16.061Z,20.4194
2023-05-09T05:24:18.396Z,20.4769
2023-05-09T05:25:20.743Z,20.5206
2023-05-09T05:26:23.084Z,20.5549
2023-05-09T05:27:25.396Z,20.5407
2023-05-09T05:28:27.738Z,20.5379
2023-05-09T05:29:30.067Z,20.5402
2023-05-09T05:30:34.141Z,20.5222
2023-05-09T05:31:34.803Z,20.5046
2023-05-09T05:32:37.173Z,20.4799
2023-05-09T05:33:39.419Z,20.4774
2023-05-09T05:34:41.734Z,20.3733
2023-05-09T05:35:44.086Z,20.2876
2023-05-09T05:36:46.432Z,20.3244
2023-05-09T05:37:49.217Z,20.3641
2023-05-09T05:38:51.092Z,20.3983
2023-05-09T05:39:53.429Z,20.3963
2023-05-09T05:40:55.778Z,20.4287
2023-05-09T05:41:58.487Z,20.4458
2023-05-09T05:43:00.459Z,20.3821
2023-05-09T05:44:02.773Z,20.3955
2023-05-09T05:45:05.144Z,20.4642
2023-05-09T05:46:07.523Z,20.5150
2023-05-09T05:47:09.788Z,20.5606
2023-05-09T05:48:12.234Z,20.4085
2023-05-09T05:49:14.465Z,20.2086
2023-05-09T05:50:16.794Z,20.0834
2023-05-09T05:51:19.122Z,19.9705
2023-05-09T05:52:21.460Z,19.9189
2023-05-09T05:53:23.784Z,19.9455
2023-05-09T05:54:26.122Z,19.8781
2023-05-09T05:55:28.480Z,19.8607
2023-05-09T05:56:30.788Z,19.9505
2023-05-09T05:57:33.119Z,19.9987
2023-05-09T05:58:35.449Z,20.0286
2023-05-09T05:59:37.770Z,20.0564
2023-05-09T06:00:40.136Z,20.1231
2023-05-09T06:01:42.482Z,20.1476
2023-05-09T06:02:44.878Z,20.1550
2023-05-09T06:03:47.355Z,20.1965
2023-05-09T06:04:49.449Z,20.1954
2023-05-09T06:05:51.821Z,20.2328
2023-05-09T06:06:54.114Z,20.2437
2023-05-09T06:07:56.519Z,20.2684
2023-05-09T06:08:58.785Z,20.2840
2023-05-09T06:10:01.110Z,20.3273
2023-05-09T06:11:03.506Z,20.3637
2023-05-09T06:12:05.964Z,20.4240
2023-05-09T06:13:08.141Z,20.4484
2023-05-09T06:14:10.462Z,20.4751
2023-05-09T06:15:13.107Z,20.4612
2023-05-09T06:16:19.679Z,20.4777
2023-05-09T06:17:18.440Z,20.5355
2023-05-09T06:18:19.792Z,20.6075
2023-05-09T06:19:22.175Z,20.6727
2023-05-09T06:20:24.458Z,20.7760
2023-05-09T06:21:26.869Z,20.8269
2023-05-09T06:22:29.147Z,20.8980
2023-05-09T06:23:31.475Z,20.9684
2023-05-09T06:24:36.343Z,21.0151
2023-05-09T06:25:36.192Z,20.9962
2023-05-09T06:26:38.497Z,20.9739
2023-05-09T06:27:40.821Z,20.9096
2023-05-09T06:28:43.166Z,20.8853
2023-05-09T06:29:45.500Z,20.8890
2023-05-09T06:30:47.837Z,20.9348
2023-05-09T06:31:50.553Z,20.9873
2023-05-09T06:32:52.595Z,21.0328
2023-05-09T06:33:54.831Z,21.0932
2023-05-09T06:34:57.250Z,21.0468
2023-05-09T06:35:59.511Z,21.0134
2023-05-09T06:37:01.868Z,21.0793
2023-05-09T06:38:04.179Z,21.1169
2023-05-09T06:39:06.536Z,21.1410
2023-05-09T06:40:08.888Z,21.1677
2023-05-09T06:41:11.194Z,21.2002
2023-05-09T06:42:13.537Z,21.2328
2023-05-09T06:43:15.859Z,21.2595
2023-05-09T06:44:18.190Z,21.2647
2023-05-09T06:45:20.763Z,21.2784
2023-05-09T06:46:22.975Z,21.3093
2023-05-09T06:47:25.249Z,21.3774
2023-05-09T06:48:27.527Z,21.4432
2023-05-09T06:49:29.875Z,21.4951
2023-05-09T06:50:33.016Z,21.5220
2023-05-09T06:51:34.546Z,21.5514
2023-05-09T06:52:36.878Z,21.5764
2023-05-09T06:53:39.209Z,21.6391
2023-05-09T06:54:41.586Z,21.6922
2023-05-09T06:55:43.936Z,21.7192
2023-05-09T06:56:46.270Z,21.7395
2023-05-09T06:57:48.611Z,21.7919
2023-05-09T06:58:50.944Z,21.7948
2023-05-09T06:59:53.272Z,21.7590
2023-05-09T07:00:55.619Z,21.7949
2023-05-09T07:01:58.129Z,21.8651
2023-05-09T07:03:00.345Z,21.8207
2023-05-09T07:04:02.619Z,21.8240
2023-05-09T07:05:04.989Z,21.8438
2023-05-09T07:06:07.385Z,21.8652
2023-05-09T07:07:09.640Z,21.9312
2023-05-09T07:08:11.976Z,21.9718
2023-05-09T07:09:14.304Z,22.0280
2023-05-09T07:10:16.638Z,22.0093
2023-05-09T07:11:18.984Z,21.9396
2023-05-09T07:12:21.305Z,21.9475
2023-05-09T07:13:23.743Z,21.9317
2023-05-09T07:14:25.970Z,21.9535
2023-05-09T07:15:40.602Z,22.0071
2023-05-09T07:16:30.692Z,22.0823
2023-05-09T07:17:33.009Z,22.1026
2023-05-09T07:18:35.321Z,22.1660
2023-05-09T07:19:37.662Z,22.2665
2023-05-09T07:20:39.982Z,22.3092
2023-05-09T07:21:42.415Z,22.3429
2023-05-09T07:22:44.735Z,22.4317
2023-05-09T07:23:47.005Z,22.4561
2023-05-09T07:24:49.318Z,22.4719
2023-05-09T07:25:51.657Z,22.5102
2023-05-09T07:26:53.996Z,22.5254
2023-05-09T07:27:56.339Z,22.5470
2023-05-09T07:28:58.671Z,22.5228
2023-05-09T07:30:01.000Z,22.5110
2023-05-09T07:31:03.337Z,22.5214
2023-05-09T07:32:05.708Z,22.5195
2023-05-09T07:33:08.240Z,22.4514
2023-05-09T07:34:10.368Z,22.3655
2023-05-09T07:35:12.985Z,22.3276
2023-05-09T07:36:15.013Z,22.3490
2023-05-09T07:37:17.492Z,22.3646
2023-05-09T07:38:19.698Z,22.3881
2023-05-09T07:39:22.064Z,22.3757
2023-05-09T07:40:24.368Z,22.3982
2023-05-09T07:41:26.843Z,22.4681
2023-05-09T07:42:29.044Z,22.4580
2023-05-09T07:43:31.372Z,22.4284
2023-05-09T07:44:33.725Z,22.4533
2023-05-09T07:45:36.043Z,22.5161
2023-05-09T07:46:38.402Z,22.5558
2023-05-09T07:47:40.759Z,22.5635
2023-05-09T07:48:43.070Z,22.6289
2023-05-09T07:49:45.417Z,22.6655
2023-05-09T07:50:47.740Z,22.6859
2023-05-09T07:51:50.092Z,22.7504
2023-05-09T07:52:52.530Z,22.8450
2023-05-09T07:53:54.755Z,22.9206
2023-05-09T07:54:57.114Z,22.9719
2023-05-09T07:55:59.437Z,23.0790
2023-05-09T07:57:01.776Z,23.0680
2023-05-09T07:58:04.100Z,23.0211
2023-05-09T07:59:06.458Z,23.0650
2023-05-09T08:00:08.813Z,23.0018
2023-05-09T08:01:11.148Z,23.0071
2023-05-09T08:02:13.503Z,23.0524
2023-05-09T08:03:16.032Z,23.1383
2023-05-09T08:04:18.181Z,23.2467
2023-05-09T08:05:20.975Z,23.3142
2023-05-09T08:06:22.849Z,23.3582
2023-05-09T08:07:25.169Z,23.3959
2023-05-09T08:08:27.529Z,23.4406
2023-05-09T08:09:29.864Z,23.4816
2023-05-09T08:10:32.329Z,23.5784
2023-05-09T08:11:34.553Z,23.7110
2023-05-09T08:12:36.895Z,23.7752
2023-05-09T08:13:39.346Z,23.8877
2023-05-09T08:14:41.556Z,23.9691
2023-05-09T08:15:43.922Z,24.0686
2023-05-09T08:16:46.248Z,24.1732
2023-05-09T08:17:48.705Z,24.2521
2023-05-09T08:18:50.925Z,24.2422
2023-05-09T08:19:53.285Z,24.2777
2023-05-09T08:20:55.596Z,24.3313
2023-05-09T08:21:57.962Z,24.4242
2023-05-09T08:23:00.303Z,24.5268
2023-05-09T08:24:02.739Z,24.6019
2023-05-09T08:25:04.970Z,24.6251
2023-05-09T08:26:07.307Z,24.6812
2023-05-09T08:27:09.661Z,24.7175
2023-05-09T08:28:12.014Z,24.6884
2023-05-09T08:29:14.337Z,24.7250
2023-05-09T08:30:16.748Z,24.7731
2023-05-09T08:31:19.060Z,24.8754
2023-05-09T08:32:21.387Z,24.9539
2023-05-09T08:33:23.749Z,24.9478
2023-05-09T08:34:26.058Z,24.9170
2023-05-09T08:35:28.401Z,24.9136
2023-05-09T08:36:30.758Z,24.9576
2023-05-09T08:37:33.088Z,24.9859
2023-05-09T08:38:35.487Z,25.0852
2023-05-09T08:39:37.869Z,25.1742
2023-05-09T08:40:40.127Z,25.2532
2023-05-09T08:41:42.525Z,25.3367
2023-05-09T08:42:44.863Z,25.4497
2023-05-09T08:43:47.210Z,25.4911
2023-05-09T08:44:49.507Z,25.5457
2023-05-09T08:45:51.872Z,25.5226
2023-05-09T08:46:54.303Z,25.5582
2023-05-09T08:47:56.558Z,25.4542
2023-05-09T08:48:58.930Z,25.4651
2023-05-09T08:50:01.230Z,25.5148
2023-05-09T08:51:03.581Z,25.5684
2023-05-09T08:52:05.986Z,25.6735
2023-05-09T08:53:08.280Z,25.7594
2023-05-09T08:54:10.655Z,25.8059
2023-05-09T08:55:13.096Z,25.8300
2023-05-09T08:56:15.298Z,25.9120
2023-05-09T08:57:17.664Z,26.0155
2023-05-09T08:58:20.005Z,26.1140
2023-05-09T08:59:22.396Z,26.2012
2023-05-09T09:00:24.760Z,26.2842
2023-05-09T09:01:27.102Z,26.3323
2023-05-09T09:02:29.429Z,26.4640
2023-05-09T09:03:31.717Z,26.5503
2023-05-09T09:04:34.134Z,26.6294
2023-05-09T09:05:41.964Z,26.7125
2023-05-09T09:06:38.795Z,26.6130
2023-05-09T09:07:41.103Z,26.4296
2023-05-09T09:08:43.464Z,26.3021
2023-05-09T09:09:45.813Z,26.3562
2023-05-09T09:10:48.254Z,26.3420
2023-05-09T09:11:50.479Z,26.3065
2023-05-09T09:12:52.848Z,26.3263
2023-05-09T09:13:55.191Z,26.3747
2023-05-09T09:14:57.531Z,26.4946
2023-05-09T09:16:00.141Z,26.6005
2023-05-09T09:17:02.209Z,26.6800
2023-05-09T09:18:07.535Z,26.7371
2023-05-09T09:19:06.899Z,26.8272
2023-05-09T09:20:09.268Z,26.9626
2023-05-09T09:21:11.729Z,26.9569
2023-05-09T09:22:13.965Z,26.9523
2023-05-09T09:23:16.278Z,26.9599
2023-05-09T09:24:18.641Z,26.9993
2023-05-09T09:25:20.995Z,27.0542
2023-05-09T09:26:23.425Z,27.0867
2023-05-09T09:27:25.676Z,27.1078
2023-05-09T09:28:28.030Z,27.1673
2023-05-09T09:29:30.383Z,27.2125
2023-05-09T09:30:32.714Z,27.2969
2023-05-09T09:31:35.100Z,27.4495
2023-05-09T09:32:37.487Z,27.5173
2023-05-09T09:33:39.759Z,27.5209
2023-05-09T09:34:42.155Z,27.6103
2023-05-09T09:35:44.453Z,27.7452
2023-05-09T09:36:46.815Z,27.8014
2023-05-09T09:37:49.154Z,27.7197
2023-05-09T09:38:51.493Z,27.6599
2023-05-09T09:39:53.866Z,27.5198
2023-05-09T09:40:56.242Z,27.4469
2023-05-09T09:41:58.625Z,27.4901
2023-05-09T09:43:00.882Z,27.6142
2023-05-09T09:44:03.233Z,27.7041
2023-05-09T09:45:05.589Z,27.7966
2023-05-09T09:46:07.934Z,27.9005
2023-05-09T09:47:10.272Z,27.9282
2023-05-09T09:48:12.685Z,27.9696
2023-05-09T09:49:15.007Z,28.0236
2023-05-09T09:50:17.463Z,28.0871
2023-05-09T09:51:19.667Z,28.1842
2023-05-09T09:52:22.022Z,28.2169
2023-05-09T09:53:24.367Z,28.2051
2023-05-09T09:54:26.740Z,28.1857
2023-05-09T09:55:29.088Z,28.2375
2023-05-09T09:56:31.428Z,28.3521
2023-05-09T09:57:33.863Z,28.4915
2023-05-09T09:58:36.121Z,28.6225
2023-05-09T09:59:38.521Z,28.7020
2023-05-09T10:00:40.866Z,28.7453
2023-05-09T10:01:43.244Z,28.8246
2023-05-09T10:02:45.557Z,28.8854
2023-05-09T10:03:47.956Z,28.9167
2023-05-09T10:04:50.247Z,28.9169
2023-05-09T10:05:52.582Z,28.8618
2023-05-09T10:06:54.958Z,28.7671
2023-05-09T10:07:57.275Z,28.8185
2023-05-09T10:08:59.645Z,28.7854
2023-05-09T10:10:02.039Z,28.7673
2023-05-09T10:11:04.340Z,28.7818
2023-05-09T10:12:06.703Z,28.8353
2023-05-09T10:13:09.158Z,28.8060
2023-05-09T10:14:11.383Z,28.6460
2023-05-09T10:15:13.756Z,28.6573
2023-05-09T10:16:16.193Z,28.6762
2023-05-09T10:17:18.507Z,28.7053
2023-05-09T10:18:20.970Z,28.5891
2023-05-09T10:19:23.134Z,28.5988
2023-05-09T10:20:25.529Z,28.6374
2023-05-09T10:21:27.827Z,28.6823
2023-05-09T10:22:30.173Z,28.6847
2023-05-09T10:23:32.546Z,28.6344
2023-05-09T10:24:34.908Z,28.6236
2023-05-09T10:25:37.263Z,28.6479
2023-05-09T10:26:39.577Z,28.5956
2023-05-09T10:27:41.942Z,28.5710
2023-05-09T10:28:44.378Z,28.5568
2023-05-09T10:29:46.665Z,28.6368
2023-05-09T10:30:49.030Z,28.7000
2023-05-09T10:31:51.466Z,28.7757
2023-05-09T10:32:53.722Z,28.7879
2023-05-09T10:33:56.079Z,28.7287
2023-05-09T10:34:58.393Z,28.6569
2023-05-09T10:36:00.755Z,28.7102
2023-05-09T10:37:03.118Z,28.7036
2023-05-09T10:38:05.462Z,28.7601
2023-05-09T10:39:07.798Z,28.8386
2023-05-09T10:40:10.149Z,28.8826
2023-05-09T10:41:12.496Z,28.9486
2023-05-09T10:42:14.864Z,28.9459
2023-05-09T10:43:17.216Z,28.9613
2023-05-09T10:44:19.659Z,28.8904
2023-05-09T10:45:21.893Z,28.8709
2023-05-09T10:46:24.363Z,28.9211
2023-05-09T10:47:51.445Z,29.0163
2023-05-09T10:48:28.999Z,29.1153
2023-05-09T10:49:31.351Z,29.1940
2023-05-09T10:50:33.702Z,29.3091
2023-05-09T10:51:36.036Z,29.3628
2023-05-09T10:52:38.366Z,29.3745
2023-05-09T10:53:40.749Z,29.4384
2023-05-09T10:54:43.488Z,29.5010
2023-05-09T10:55:45.428Z,29.5290
2023-05-09T10:56:47.772Z,29.4907
2023-05-09T10:57:50.130Z,29.4901
2023-05-09T10:58:52.480Z,29.2229
2023-05-09T10:59:55.009Z,29.0925
2023-05-09T11:00:57.445Z,29.1087
2023-05-09T11:01:59.712Z,29.1535
2023-05-09T11:03:02.095Z,29.1154
2023-05-09T11:04:04.341Z,29.0512
2023-05-09T11:05:06.690Z,29.0320
2023-05-09T11:06:08.999Z,29.0523
2023-05-09T11:07:11.376Z,29.1144
2023-05-09T11:08:13.717Z,29.1534
2023-05-09T11:09:16.074Z,29.1514
2023-05-09T11:10:18.523Z,29.1869
2023-05-09T11:11:20.769Z,29.1460
2023-05-09T11:12:23.123Z,29.1115
2023-05-09T11:13:25.536Z,29.0794
2023-05-09T11:14:27.799Z,29.1042
2023-05-09T11:15:30.337Z,29.1487
2023-05-09T11:16:32.519Z,29.1616
2023-05-09T11:17:34.924Z,29.1420
2023-05-09T11:18:37.274Z,29.1166
2023-05-09T11:19:39.568Z,29.1033
2023-05-09T11:20:41.978Z,28.9372
2023-05-09T11:21:44.276Z,28.8206
2023-05-09T11:22:46.632Z,28.8220
2023-05-09T11:23:48.931Z,28.8870
2023-05-09T11:24:51.281Z,28.7641
2023-05-09T11:25:53.667Z,28.6919
2023-05-09T11:26:56.143Z,28.7505
2023-05-09T11:27:58.346Z,28.7967
2023-05-09T11:29:00.702Z,28.8288
2023-05-09T11:30:03.052Z,28.8191
2023-05-09T11:31:05.489Z,28.7397
2023-05-09T11:32:07.944Z,28.7180
2023-05-09T11:33:10.090Z,28.7742
2023-05-09T11:34:12.410Z,28.7837
2023-05-09T11:35:15.366Z,28.7803
2023-05-09T11:36:17.165Z,28.8225
2023-05-09T11:37:19.554Z,28.8449
2023-05-09T11:38:21.843Z,28.8255
2023-05-09T11:39:24.190Z,28.7574
2023-05-09T11:40:26.505Z,28.7000
2023-05-09T11:41:29.006Z,28.6946
2023-05-09T11:42:31.230Z,28.5920
2023-05-09T11:43:33.609Z,28.5341
2023-05-09T11:44:35.934Z,28.5218
2023-05-09T11:45:38.325Z,28.5518
2023-05-09T11:46:40.658Z,28.5993
2023-05-09T11:47:43.048Z,28.5907
2023-05-09T11:48:45.483Z,28.4825
2023-05-09T11:49:49.964Z,28.4433
2023-05-09T11:50:50.080Z,28.2454
2023-05-09T11:51:52.320Z,27.9168
2023-05-09T11:52:54.700Z,27.7204
2023-05-09T11:53:57.030Z,27.6493
2023-05-09T11:54:59.523Z,27.6784
2023-05-09T11:56:02.160Z,27.7550
2023-05-09T11:57:04.126Z,27.8126
2023-05-09T11:58:06.563Z,27.8436
2023-05-09T11:59:08.766Z,27.8603
2023-05-09T12:00:11.229Z,27.9504
2023-05-09T12:01:13.587Z,28.0362
2023-05-09T12:02:15.871Z,28.1300
2023-05-09T12:03:18.489Z,28.1885
2023-05-09T12:04:20.472Z,28.1631
2023-05-09T12:05:23.093Z,28.1873
2023-05-09T12:06:26.254Z,28.2384
2023-05-09T12:07:27.530Z,28.2976
2023-05-09T12:08:29.938Z,28.4137
2023-05-09T12:09:32.199Z,28.5019
2023-05-09T12:10:34.542Z,28.5555
2023-05-09T12:11:37.189Z,28.6289
2023-05-09T12:12:39.284Z,28.6979
2023-05-09T12:13:41.594Z,28.7616
2023-05-09T12:14:44.855Z,28.7513
2023-05-09T12:15:46.373Z,28.6425
2023-05-09T12:16:48.674Z,28.6080
2023-05-09T12:17:52.103Z,28.5861
2023-05-09T12:18:53.333Z,28.5374
2023-05-09T12:19:55.635Z,28.4633
2023-05-09T12:20:57.985Z,28.4445
2023-05-09T12:22:00.321Z,28.4591
2023-05-09T12:23:02.697Z,28.5038
2023-05-09T12:24:05.044Z,28.5504
2023-05-09T12:25:07.447Z,28.5540
2023-05-09T12:26:09.724Z,28.5848
2023-05-09T12:27:12.209Z,28.6483
2023-05-09T12:28:14.840Z,28.7095
2023-05-09T12:29:17.089Z,28.7921
2023-05-09T12:30:19.172Z,28.8019
2023-05-09T12:31:21.541Z,28.7645
2023-05-09T12:32:23.801Z,28.7419
2023-05-09T12:33:26.828Z,28.7474